sensor_id;sensor_type;location;lat;lon;timestamp;P1;durP1;ratioP1;P2;durP2;ratioP2
8708;SDS011;4391;48.678;9.280;2023-08-06T00:00:54;11.60;;;6.22;;
8708;SDS011;4391;48.678;9.280;2023-08-06T00:03:21;11.03;;;5.80;;
8708;SDS011;4391;48.678;9.280;2023-08-06T00:05:48;10.90;;;5.70;;
8708;SDS011;4391;48.678;9.280;2023-08-06T00:08:15;16.58;;;5.45;;
8708;SDS011;4391;48.678;9.280;2023-08-06T00:10:43;11.13;;;5.60;;
8708;SDS011;4391;48.678;9.280;2023-08-06T00:13:09;10.25;;;5.95;;
8708;SDS011;4391;48.678;9.280;2023-08-06T00:15:36;10.43;;;5.60;;
8708;SDS011;4391;48.678;9.280;2023-08-06T00:18:03;10.27;;;5.10;;
8708;SDS011;4391;48.678;9.280;2023-08-06T00:20:30;9.20;;;5.15;;
8708;SDS011;4391;48.678;9.280;2023-08-06T00:22:57;10.95;;;5.43;;
8708;SDS011;4391;48.678;9.280;2023-08-06T00:25:24;8.65;;;5.25;;
8708;SDS011;4391;48.678;9.280;2023-08-06T00:27:52;11.27;;;4.90;;
8708;SDS011;4391;48.678;9.280;2023-08-06T00:30:19;10.77;;;5.28;;
8708;SDS011;4391;48.678;9.280;2023-08-06T00:32:46;10.93;;;4.53;;
8708;SDS011;4391;48.678;9.280;2023-08-06T00:35:13;8.75;;;4.88;;
8708;SDS011;4391;48.678;9.280;2023-08-06T00:37:39;8.30;;;4.75;;
8708;SDS011;4391;48.678;9.280;2023-08-06T00:40:07;7.33;;;4.07;;
8708;SDS011;4391;48.678;9.280;2023-08-06T00:42:34;8.25;;;4.35;;
8708;SDS011;4391;48.678;9.280;2023-08-06T00:45:02;8.02;;;4.32;;
8708;SDS011;4391;48.678;9.280;2023-08-06T00:47:30;8.38;;;4.47;;
8708;SDS011;4391;48.678;9.280;2023-08-06T00:49:57;9.50;;;4.78;;
8708;SDS011;4391;48.678;9.280;2023-08-06T00:52:24;9.67;;;5.03;;
8708;SDS011;4391;48.678;9.280;2023-08-06T00:54:51;9.80;;;4.65;;
8708;SDS011;4391;48.678;9.280;2023-08-06T00:57:18;7.40;;;4.20;;
8708;SDS011;4391;48.678;9.280;2023-08-06T00:59:47;6.68;;;3.90;;
8708;SDS011;4391;48.678;9.280;2023-08-06T01:02:16;7.45;;;3.70;;
8708;SDS011;4391;48.678;9.280;2023-08-06T01:04:43;7.43;;;3.50;;
8708;SDS011;4391;48.678;9.280;2023-08-06T01:07:16;6.55;;;3.50;;
8708;SDS011;4391;48.678;9.280;2023-08-06T01:09:56;5.45;;;3.00;;
8708;SDS011;4391;48.678;9.280;2023-08-06T01:12:34;6.32;;;2.80;;
8708;SDS011;4391;48.678;9.280;2023-08-06T01:15:11;8.35;;;3.20;;
8708;SDS011;4391;48.678;9.280;2023-08-06T01:17:44;5.23;;;2.90;;
8708;SDS011;4391;48.678;9.280;2023-08-06T01:20:11;6.85;;;3.10;;
8708;SDS011;4391;48.678;9.280;2023-08-06T01:22:39;5.53;;;3.33;;
8708;SDS011;4391;48.678;9.280;2023-08-06T01:25:06;8.38;;;3.17;;
8708;SDS011;4391;48.678;9.280;2023-08-06T01:27:36;6.40;;;3.15;;
8708;SDS011;4391;48.678;9.280;2023-08-06T01:30:09;5.20;;;2.90;;
8708;SDS011;4391;48.678;9.280;2023-08-06T01:32:41;5.72;;;3.03;;
8708;SDS011;4391;48.678;9.280;2023-08-06T01:35:10;6.05;;;3.10;;
8708;SDS011;4391;48.678;9.280;2023-08-06T01:37:41;6.07;;;3.03;;
8708;SDS011;4391;48.678;9.280;2023-08-06T01:40:09;7.65;;;2.90;;
8708;SDS011;4391;48.678;9.280;2023-08-06T01:42:37;8.30;;;3.27;;
8708;SDS011;4391;48.678;9.280;2023-08-06T01:45:04;5.82;;;2.97;;
8708;SDS011;4391;48.678;9.280;2023-08-06T01:47:32;5.68;;;3.08;;
8708;SDS011;4391;48.678;9.280;2023-08-06T01:49:59;5.38;;;3.13;;
8708;SDS011;4391;48.678;9.280;2023-08-06T01:52:26;6.28;;;3.40;;
8708;SDS011;4391;48.678;9.280;2023-08-06T01:54:54;5.33;;;2.90;;
8708;SDS011;4391;48.678;9.280;2023-08-06T01:57:21;5.38;;;2.80;;
8708;SDS011;4391;48.678;9.280;2023-08-06T01:59:47;5.63;;;2.38;;
8708;SDS011;4391;48.678;9.280;2023-08-06T02:02:14;7.38;;;2.22;;
8708;SDS011;4391;48.678;9.280;2023-08-06T02:04:41;6.35;;;3.10;;
8708;SDS011;4391;48.678;9.280;2023-08-06T02:07:08;5.37;;;2.40;;
8708;SDS011;4391;48.678;9.280;2023-08-06T02:09:34;6.28;;;2.45;;
8708;SDS011;4391;48.678;9.280;2023-08-06T02:12:03;4.95;;;2.80;;
8708;SDS011;4391;48.678;9.280;2023-08-06T02:14:30;5.93;;;2.70;;
8708;SDS011;4391;48.678;9.280;2023-08-06T02:16:57;4.80;;;2.40;;
8708;SDS011;4391;48.678;9.280;2023-08-06T02:19:24;5.57;;;2.47;;
8708;SDS011;4391;48.678;9.280;2023-08-06T02:21:51;5.38;;;2.70;;
8708;SDS011;4391;48.678;9.280;2023-08-06T02:24:18;4.57;;;2.10;;
8708;SDS011;4391;48.678;9.280;2023-08-06T02:26:44;4.57;;;2.33;;
8708;SDS011;4391;48.678;9.280;2023-08-06T02:29:15;6.50;;;2.38;;
8708;SDS011;4391;48.678;9.280;2023-08-06T02:31:41;4.97;;;2.10;;
8708;SDS011;4391;48.678;9.280;2023-08-06T02:34:08;5.82;;;2.50;;
8708;SDS011;4391;48.678;9.280;2023-08-06T02:36:35;7.13;;;2.65;;
8708;SDS011;4391;48.678;9.280;2023-08-06T02:39:02;5.50;;;2.45;;
8708;SDS011;4391;48.678;9.280;2023-08-06T02:41:29;5.90;;;2.55;;
8708;SDS011;4391;48.678;9.280;2023-08-06T02:43:56;5.37;;;2.20;;
8708;SDS011;4391;48.678;9.280;2023-08-06T02:46:24;7.47;;;3.03;;
8708;SDS011;4391;48.678;9.280;2023-08-06T02:48:50;4.78;;;2.47;;
8708;SDS011;4391;48.678;9.280;2023-08-06T02:51:17;7.13;;;2.72;;
8708;SDS011;4391;48.678;9.280;2023-08-06T02:53:44;4.80;;;2.40;;
8708;SDS011;4391;48.678;9.280;2023-08-06T02:56:11;7.50;;;2.83;;
8708;SDS011;4391;48.678;9.280;2023-08-06T02:58:38;4.80;;;2.60;;
8708;SDS011;4391;48.678;9.280;2023-08-06T03:01:05;5.00;;;2.40;;
8708;SDS011;4391;48.678;9.280;2023-08-06T03:03:34;5.43;;;2.80;;
8708;SDS011;4391;48.678;9.280;2023-08-06T03:06:00;4.90;;;2.10;;
8708;SDS011;4391;48.678;9.280;2023-08-06T03:08:27;5.17;;;2.30;;
8708;SDS011;4391;48.678;9.280;2023-08-06T03:10:54;5.00;;;2.30;;
8708;SDS011;4391;48.678;9.280;2023-08-06T03:13:21;5.55;;;2.40;;
8708;SDS011;4391;48.678;9.280;2023-08-06T03:15:51;6.22;;;2.25;;
8708;SDS011;4391;48.678;9.280;2023-08-06T03:18:19;4.82;;;1.90;;
8708;SDS011;4391;48.678;9.280;2023-08-06T03:20:48;5.10;;;1.80;;
8708;SDS011;4391;48.678;9.280;2023-08-06T03:23:15;4.18;;;1.48;;
8708;SDS011;4391;48.678;9.280;2023-08-06T03:25:42;5.97;;;2.00;;
8708;SDS011;4391;48.678;9.280;2023-08-06T03:28:09;5.38;;;1.80;;
8708;SDS011;4391;48.678;9.280;2023-08-06T03:30:36;4.60;;;1.52;;
8708;SDS011;4391;48.678;9.280;2023-08-06T03:33:03;6.80;;;1.90;;
8708;SDS011;4391;48.678;9.280;2023-08-06T03:35:30;5.10;;;1.90;;
8708;SDS011;4391;48.678;9.280;2023-08-06T03:37:58;4.03;;;1.70;;
8708;SDS011;4391;48.678;9.280;2023-08-06T03:40:25;6.50;;;1.70;;
8708;SDS011;4391;48.678;9.280;2023-08-06T03:42:51;4.78;;;1.48;;
8708;SDS011;4391;48.678;9.280;2023-08-06T03:45:18;4.10;;;1.60;;
8708;SDS011;4391;48.678;9.280;2023-08-06T03:47:45;4.28;;;1.50;;
8708;SDS011;4391;48.678;9.280;2023-08-06T03:50:12;4.20;;;1.80;;
8708;SDS011;4391;48.678;9.280;2023-08-06T03:52:38;5.53;;;1.73;;
8708;SDS011;4391;48.678;9.280;2023-08-06T03:55:07;5.63;;;1.92;;
8708;SDS011;4391;48.678;9.280;2023-08-06T03:57:34;4.63;;;1.70;;
8708;SDS011;4391;48.678;9.280;2023-08-06T04:00:01;5.75;;;1.77;;
8708;SDS011;4391;48.678;9.280;2023-08-06T04:02:28;4.40;;;1.40;;
8708;SDS011;4391;48.678;9.280;2023-08-06T04:04:55;3.50;;;1.40;;
8708;SDS011;4391;48.678;9.280;2023-08-06T04:07:22;6.47;;;1.60;;
8708;SDS011;4391;48.678;9.280;2023-08-06T04:09:52;6.00;;;1.90;;
8708;SDS011;4391;48.678;9.280;2023-08-06T04:12:21;6.18;;;2.22;;
8708;SDS011;4391;48.678;9.280;2023-08-06T04:14:48;5.78;;;1.70;;
8708;SDS011;4391;48.678;9.280;2023-08-06T04:17:15;4.68;;;1.58;;
8708;SDS011;4391;48.678;9.280;2023-08-06T04:19:45;4.88;;;1.85;;
8708;SDS011;4391;48.678;9.280;2023-08-06T04:22:12;4.47;;;1.50;;
8708;SDS011;4391;48.678;9.280;2023-08-06T04:24:39;4.20;;;1.60;;
8708;SDS011;4391;48.678;9.280;2023-08-06T04:27:06;5.20;;;1.70;;
8708;SDS011;4391;48.678;9.280;2023-08-06T04:29:34;3.85;;;1.65;;
8708;SDS011;4391;48.678;9.280;2023-08-06T04:32:01;4.30;;;1.65;;
8708;SDS011;4391;48.678;9.280;2023-08-06T04:34:28;3.80;;;1.30;;
8708;SDS011;4391;48.678;9.280;2023-08-06T04:36:55;6.75;;;1.20;;
8708;SDS011;4391;48.678;9.280;2023-08-06T04:39:22;4.00;;;1.58;;
8708;SDS011;4391;48.678;9.280;2023-08-06T04:41:48;3.97;;;1.23;;
8708;SDS011;4391;48.678;9.280;2023-08-06T04:44:15;3.58;;;1.20;;
8708;SDS011;4391;48.678;9.280;2023-08-06T04:46:43;3.87;;;1.20;;
8708;SDS011;4391;48.678;9.280;2023-08-06T04:49:10;5.13;;;1.10;;
8708;SDS011;4391;48.678;9.280;2023-08-06T04:51:37;5.88;;;1.02;;
8708;SDS011;4391;48.678;9.280;2023-08-06T04:54:03;3.03;;;0.90;;
8708;SDS011;4391;48.678;9.280;2023-08-06T04:56:30;3.42;;;1.02;;
8708;SDS011;4391;48.678;9.280;2023-08-06T04:58:57;5.80;;;1.53;;
8708;SDS011;4391;48.678;9.280;2023-08-06T05:01:25;4.03;;;0.82;;
8708;SDS011;4391;48.678;9.280;2023-08-06T05:03:53;3.58;;;1.00;;
8708;SDS011;4391;48.678;9.280;2023-08-06T05:06:19;3.28;;;0.90;;
8708;SDS011;4391;48.678;9.280;2023-08-06T05:08:46;2.95;;;0.95;;
8708;SDS011;4391;48.678;9.280;2023-08-06T05:11:13;2.40;;;0.90;;
8708;SDS011;4391;48.678;9.280;2023-08-06T05:13:40;2.25;;;0.70;;
8708;SDS011;4391;48.678;9.280;2023-08-06T05:16:07;1.60;;;0.65;;
8708;SDS011;4391;48.678;9.280;2023-08-06T05:18:33;2.75;;;0.70;;
8708;SDS011;4391;48.678;9.280;2023-08-06T05:21:04;3.92;;;0.70;;
8708;SDS011;4391;48.678;9.280;2023-08-06T05:23:30;3.70;;;0.73;;
8708;SDS011;4391;48.678;9.280;2023-08-06T05:25:57;3.88;;;0.77;;
8708;SDS011;4391;48.678;9.280;2023-08-06T05:28:24;1.08;;;0.50;;
8708;SDS011;4391;48.678;9.280;2023-08-06T05:30:51;4.22;;;0.80;;
8708;SDS011;4391;48.678;9.280;2023-08-06T05:33:17;4.45;;;1.58;;
8708;SDS011;4391;48.678;9.280;2023-08-06T05:35:44;3.67;;;0.80;;
8708;SDS011;4391;48.678;9.280;2023-08-06T05:38:12;3.75;;;0.80;;
8708;SDS011;4391;48.678;9.280;2023-08-06T05:40:39;2.65;;;0.80;;
8708;SDS011;4391;48.678;9.280;2023-08-06T05:43:06;7.55;;;0.90;;
8708;SDS011;4391;48.678;9.280;2023-08-06T05:45:33;2.40;;;0.90;;
8708;SDS011;4391;48.678;9.280;2023-08-06T05:47:59;3.03;;;0.80;;
8708;SDS011;4391;48.678;9.280;2023-08-06T05:50:26;2.70;;;0.75;;
8708;SDS011;4391;48.678;9.280;2023-08-06T05:52:53;2.55;;;0.70;;
8708;SDS011;4391;48.678;9.280;2023-08-06T05:55:21;2.72;;;0.77;;
8708;SDS011;4391;48.678;9.280;2023-08-06T05:57:48;5.00;;;0.80;;
8708;SDS011;4391;48.678;9.280;2023-08-06T06:00:17;2.60;;;0.60;;
8708;SDS011;4391;48.678;9.280;2023-08-06T06:02:43;3.38;;;0.70;;
8708;SDS011;4391;48.678;9.280;2023-08-06T06:05:11;1.65;;;0.50;;
8708;SDS011;4391;48.678;9.280;2023-08-06T06:07:38;3.58;;;0.60;;
8708;SDS011;4391;48.678;9.280;2023-08-06T06:10:05;2.53;;;0.60;;
8708;SDS011;4391;48.678;9.280;2023-08-06T06:12:34;3.30;;;0.80;;
8708;SDS011;4391;48.678;9.280;2023-08-06T06:15:02;3.00;;;0.80;;
8708;SDS011;4391;48.678;9.280;2023-08-06T06:17:29;3.40;;;0.60;;
8708;SDS011;4391;48.678;9.280;2023-08-06T06:19:57;4.40;;;0.70;;
8708;SDS011;4391;48.678;9.280;2023-08-06T06:22:25;2.35;;;0.70;;
8708;SDS011;4391;48.678;9.280;2023-08-06T06:24:51;3.17;;;0.67;;
8708;SDS011;4391;48.678;9.280;2023-08-06T06:27:18;1.70;;;0.47;;
8708;SDS011;4391;48.678;9.280;2023-08-06T06:29:47;2.85;;;0.60;;
8708;SDS011;4391;48.678;9.280;2023-08-06T06:32:14;2.08;;;0.55;;
8708;SDS011;4391;48.678;9.280;2023-08-06T06:34:41;4.43;;;0.70;;
8708;SDS011;4391;48.678;9.280;2023-08-06T06:37:08;2.57;;;0.70;;
8708;SDS011;4391;48.678;9.280;2023-08-06T06:39:35;1.90;;;0.68;;
8708;SDS011;4391;48.678;9.280;2023-08-06T06:42:02;3.30;;;0.85;;
8708;SDS011;4391;48.678;9.280;2023-08-06T06:44:29;2.83;;;0.70;;
8708;SDS011;4391;48.678;9.280;2023-08-06T06:46:58;3.22;;;0.82;;
8708;SDS011;4391;48.678;9.280;2023-08-06T06:49:25;1.50;;;0.57;;
8708;SDS011;4391;48.678;9.280;2023-08-06T06:51:52;1.40;;;0.60;;
8708;SDS011;4391;48.678;9.280;2023-08-06T06:54:19;3.20;;;0.60;;
8708;SDS011;4391;48.678;9.280;2023-08-06T06:56:49;2.05;;;0.63;;
8708;SDS011;4391;48.678;9.280;2023-08-06T06:59:17;2.85;;;0.60;;
8708;SDS011;4391;48.678;9.280;2023-08-06T07:01:46;2.93;;;0.50;;
8708;SDS011;4391;48.678;9.280;2023-08-06T07:04:17;2.70;;;0.60;;
8708;SDS011;4391;48.678;9.280;2023-08-06T07:06:45;1.65;;;0.50;;
8708;SDS011;4391;48.678;9.280;2023-08-06T07:09:19;1.65;;;0.40;;
8708;SDS011;4391;48.678;9.280;2023-08-06T07:11:46;2.88;;;0.65;;
8708;SDS011;4391;48.678;9.280;2023-08-06T07:14:17;1.57;;;0.40;;
8708;SDS011;4391;48.678;9.280;2023-08-06T07:16:46;2.10;;;0.28;;
8708;SDS011;4391;48.678;9.280;2023-08-06T07:19:14;1.15;;;0.50;;
8708;SDS011;4391;48.678;9.280;2023-08-06T07:21:45;1.70;;;0.30;;
8708;SDS011;4391;48.678;9.280;2023-08-06T07:24:13;1.42;;;0.50;;
8708;SDS011;4391;48.678;9.280;2023-08-06T07:26:40;2.20;;;0.50;;
8708;SDS011;4391;48.678;9.280;2023-08-06T07:29:08;3.50;;;0.50;;
8708;SDS011;4391;48.678;9.280;2023-08-06T07:31:35;1.48;;;0.50;;
8708;SDS011;4391;48.678;9.280;2023-08-06T07:34:02;1.33;;;0.50;;
8708;SDS011;4391;48.678;9.280;2023-08-06T07:36:30;2.53;;;0.40;;
8708;SDS011;4391;48.678;9.280;2023-08-06T07:39:01;1.70;;;0.60;;
8708;SDS011;4391;48.678;9.280;2023-08-06T07:41:31;1.50;;;0.43;;
8708;SDS011;4391;48.678;9.280;2023-08-06T07:43:58;1.45;;;0.40;;
8708;SDS011;4391;48.678;9.280;2023-08-06T07:46:25;1.77;;;0.50;;
8708;SDS011;4391;48.678;9.280;2023-08-06T07:48:52;1.30;;;0.47;;
8708;SDS011;4391;48.678;9.280;2023-08-06T07:51:19;3.53;;;0.50;;
8708;SDS011;4391;48.678;9.280;2023-08-06T07:53:47;0.75;;;0.30;;
8708;SDS011;4391;48.678;9.280;2023-08-06T07:56:14;2.22;;;0.40;;
8708;SDS011;4391;48.678;9.280;2023-08-06T07:58:41;1.20;;;0.50;;
8708;SDS011;4391;48.678;9.280;2023-08-06T08:01:08;0.80;;;0.40;;
8708;SDS011;4391;48.678;9.280;2023-08-06T08:03:38;1.77;;;0.30;;
8708;SDS011;4391;48.678;9.280;2023-08-06T08:06:06;0.80;;;0.40;;
8708;SDS011;4391;48.678;9.280;2023-08-06T08:08:33;0.90;;;0.40;;
8708;SDS011;4391;48.678;9.280;2023-08-06T08:11:04;0.85;;;0.40;;
8708;SDS011;4391;48.678;9.280;2023-08-06T08:13:32;1.23;;;0.40;;
8708;SDS011;4391;48.678;9.280;2023-08-06T08:15:59;1.17;;;0.40;;
8708;SDS011;4391;48.678;9.280;2023-08-06T08:18:26;2.08;;;0.57;;
8708;SDS011;4391;48.678;9.280;2023-08-06T08:20:54;2.08;;;0.40;;
8708;SDS011;4391;48.678;9.280;2023-08-06T08:23:21;1.05;;;0.30;;
8708;SDS011;4391;48.678;9.280;2023-08-06T08:25:48;1.63;;;0.43;;
8708;SDS011;4391;48.678;9.280;2023-08-06T08:28:17;0.60;;;0.30;;
8708;SDS011;4391;48.678;9.280;2023-08-06T08:30:45;1.45;;;0.20;;
8708;SDS011;4391;48.678;9.280;2023-08-06T08:33:12;0.75;;;0.20;;
8708;SDS011;4391;48.678;9.280;2023-08-06T08:35:39;0.88;;;0.40;;
8708;SDS011;4391;48.678;9.280;2023-08-06T08:38:07;0.50;;;0.30;;
8708;SDS011;4391;48.678;9.280;2023-08-06T08:40:35;0.97;;;0.33;;
8708;SDS011;4391;48.678;9.280;2023-08-06T08:43:26;0.88;;;0.30;;
8708;SDS011;4391;48.678;9.280;2023-08-06T08:45:54;0.30;;;0.20;;
8708;SDS011;4391;48.678;9.280;2023-08-06T08:48:23;0.68;;;0.43;;
8708;SDS011;4391;48.678;9.280;2023-08-06T08:50:52;0.70;;;0.40;;
8708;SDS011;4391;48.678;9.280;2023-08-06T08:53:19;0.73;;;0.30;;
8708;SDS011;4391;48.678;9.280;2023-08-06T08:55:48;0.85;;;0.30;;
8708;SDS011;4391;48.678;9.280;2023-08-06T08:58:15;0.95;;;0.40;;
8708;SDS011;4391;48.678;9.280;2023-08-06T09:00:44;0.50;;;0.20;;
8708;SDS011;4391;48.678;9.280;2023-08-06T09:03:13;0.82;;;0.40;;
8708;SDS011;4391;48.678;9.280;2023-08-06T09:05:40;1.00;;;0.50;;
8708;SDS011;4391;48.678;9.280;2023-08-06T09:08:11;0.75;;;0.40;;
8708;SDS011;4391;48.678;9.280;2023-08-06T09:10:41;1.77;;;0.52;;
8708;SDS011;4391;48.678;9.280;2023-08-06T09:13:09;1.38;;;0.20;;
8708;SDS011;4391;48.678;9.280;2023-08-06T09:15:37;0.70;;;0.40;;
8708;SDS011;4391;48.678;9.280;2023-08-06T09:18:10;2.03;;;0.40;;
8708;SDS011;4391;48.678;9.280;2023-08-06T09:20:37;0.60;;;0.30;;
8708;SDS011;4391;48.678;9.280;2023-08-06T09:23:06;0.60;;;0.30;;
8708;SDS011;4391;48.678;9.280;2023-08-06T09:25:36;0.93;;;0.40;;
8708;SDS011;4391;48.678;9.280;2023-08-06T09:28:04;2.53;;;0.50;;
8708;SDS011;4391;48.678;9.280;2023-08-06T09:30:32;0.90;;;0.40;;
8708;SDS011;4391;48.678;9.280;2023-08-06T09:33:00;1.90;;;0.32;;
8708;SDS011;4391;48.678;9.280;2023-08-06T09:35:29;0.95;;;0.30;;
8708;SDS011;4391;48.678;9.280;2023-08-06T09:38:01;0.55;;;0.20;;
8708;SDS011;4391;48.678;9.280;2023-08-06T09:40:33;0.70;;;0.30;;
8708;SDS011;4391;48.678;9.280;2023-08-06T09:43:01;0.50;;;0.30;;
8708;SDS011;4391;48.678;9.280;2023-08-06T09:45:29;0.50;;;0.30;;
8708;SDS011;4391;48.678;9.280;2023-08-06T09:47:58;0.55;;;0.30;;
8708;SDS011;4391;48.678;9.280;2023-08-06T09:50:27;0.77;;;0.32;;
8708;SDS011;4391;48.678;9.280;2023-08-06T09:52:57;4.18;;;0.30;;
8708;SDS011;4391;48.678;9.280;2023-08-06T09:55:24;0.80;;;0.30;;
8708;SDS011;4391;48.678;9.280;2023-08-06T09:57:52;0.60;;;0.32;;
8708;SDS011;4391;48.678;9.280;2023-08-06T10:00:19;1.40;;;0.38;;
8708;SDS011;4391;48.678;9.280;2023-08-06T10:02:47;1.25;;;0.40;;
8708;SDS011;4391;48.678;9.280;2023-08-06T10:05:15;0.40;;;0.25;;
8708;SDS011;4391;48.678;9.280;2023-08-06T10:07:43;0.97;;;0.40;;
8708;SDS011;4391;48.678;9.280;2023-08-06T10:10:11;0.57;;;0.32;;
8708;SDS011;4391;48.678;9.280;2023-08-06T10:12:39;0.73;;;0.30;;
8708;SDS011;4391;48.678;9.280;2023-08-06T10:15:09;1.00;;;0.40;;
8708;SDS011;4391;48.678;9.280;2023-08-06T10:17:40;1.55;;;0.40;;
8708;SDS011;4391;48.678;9.280;2023-08-06T10:20:08;1.90;;;0.40;;
8708;SDS011;4391;48.678;9.280;2023-08-06T10:22:35;0.70;;;0.22;;
8708;SDS011;4391;48.678;9.280;2023-08-06T10:25:03;1.88;;;0.40;;
8708;SDS011;4391;48.678;9.280;2023-08-06T10:27:32;0.93;;;0.32;;
8708;SDS011;4391;48.678;9.280;2023-08-06T10:32:53;1.10;;;0.40;;
8708;SDS011;4391;48.678;9.280;2023-08-06T10:35:28;0.88;;;0.22;;
8708;SDS011;4391;48.678;9.280;2023-08-06T10:38:02;0.90;;;0.40;;
8708;SDS011;4391;48.678;9.280;2023-08-06T10:40:32;0.77;;;0.30;;
8708;SDS011;4391;48.678;9.280;2023-08-06T10:42:59;0.73;;;0.40;;
8708;SDS011;4391;48.678;9.280;2023-08-06T10:45:27;0.80;;;0.30;;
8708;SDS011;4391;48.678;9.280;2023-08-06T10:47:55;0.88;;;0.30;;
8708;SDS011;4391;48.678;9.280;2023-08-06T10:50:23;1.67;;;0.60;;
8708;SDS011;4391;48.678;9.280;2023-08-06T10:52:50;1.15;;;0.40;;
8708;SDS011;4391;48.678;9.280;2023-08-06T10:55:24;0.73;;;0.30;;
8708;SDS011;4391;48.678;9.280;2023-08-06T10:57:53;0.53;;;0.30;;
8708;SDS011;4391;48.678;9.280;2023-08-06T11:00:21;1.10;;;0.43;;
8708;SDS011;4391;48.678;9.280;2023-08-06T11:02:49;0.80;;;0.40;;
8708;SDS011;4391;48.678;9.280;2023-08-06T11:05:16;0.90;;;0.40;;
8708;SDS011;4391;48.678;9.280;2023-08-06T11:07:43;0.95;;;0.38;;
8708;SDS011;4391;48.678;9.280;2023-08-06T11:10:11;0.60;;;0.30;;
8708;SDS011;4391;48.678;9.280;2023-08-06T11:12:39;0.63;;;0.30;;
8708;SDS011;4391;48.678;9.280;2023-08-06T11:15:07;0.60;;;0.22;;
8708;SDS011;4391;48.678;9.280;2023-08-06T11:17:36;1.25;;;0.30;;
8708;SDS011;4391;48.678;9.280;2023-08-06T11:20:05;0.50;;;0.30;;
8708;SDS011;4391;48.678;9.280;2023-08-06T11:22:32;1.00;;;0.43;;
8708;SDS011;4391;48.678;9.280;2023-08-06T11:24:59;0.60;;;0.30;;
8708;SDS011;4391;48.678;9.280;2023-08-06T11:27:26;1.63;;;0.35;;
8708;SDS011;4391;48.678;9.280;2023-08-06T11:29:54;1.17;;;0.40;;
8708;SDS011;4391;48.678;9.280;2023-08-06T11:32:22;0.68;;;0.40;;
8708;SDS011;4391;48.678;9.280;2023-08-06T11:34:49;0.97;;;0.40;;
8708;SDS011;4391;48.678;9.280;2023-08-06T11:37:16;0.70;;;0.40;;
8708;SDS011;4391;48.678;9.280;2023-08-06T11:39:49;0.60;;;0.20;;
8708;SDS011;4391;48.678;9.280;2023-08-06T11:42:15;0.88;;;0.40;;
8708;SDS011;4391;48.678;9.280;2023-08-06T11:44:42;1.13;;;0.40;;
8708;SDS011;4391;48.678;9.280;2023-08-06T11:47:11;1.73;;;0.50;;
8708;SDS011;4391;48.678;9.280;2023-08-06T11:49:42;1.33;;;0.60;;
8708;SDS011;4391;48.678;9.280;2023-08-06T11:52:13;1.17;;;0.47;;
8708;SDS011;4391;48.678;9.280;2023-08-06T11:54:43;1.30;;;0.60;;
8708;SDS011;4391;48.678;9.280;2023-08-06T11:57:11;2.03;;;0.50;;
8708;SDS011;4391;48.678;9.280;2023-08-06T11:59:38;1.57;;;0.40;;
8708;SDS011;4391;48.678;9.280;2023-08-06T12:02:08;1.05;;;0.50;;
8708;SDS011;4391;48.678;9.280;2023-08-06T12:07:31;1.20;;;0.60;;
8708;SDS011;4391;48.678;9.280;2023-08-06T12:09:59;1.50;;;0.50;;
8708;SDS011;4391;48.678;9.280;2023-08-06T12:12:26;1.23;;;0.30;;
8708;SDS011;4391;48.678;9.280;2023-08-06T12:14:53;1.23;;;0.50;;
8708;SDS011;4391;48.678;9.280;2023-08-06T12:17:20;1.65;;;0.50;;
8708;SDS011;4391;48.678;9.280;2023-08-06T12:19:47;1.70;;;0.70;;
8708;SDS011;4391;48.678;9.280;2023-08-06T12:22:15;2.60;;;0.60;;
8708;SDS011;4391;48.678;9.280;2023-08-06T12:24:43;1.80;;;0.50;;
8708;SDS011;4391;48.678;9.280;2023-08-06T12:27:11;2.10;;;0.52;;
8708;SDS011;4391;48.678;9.280;2023-08-06T12:29:40;1.13;;;0.40;;
8708;SDS011;4391;48.678;9.280;2023-08-06T12:32:07;0.88;;;0.40;;
8708;SDS011;4391;48.678;9.280;2023-08-06T12:34:34;1.63;;;0.50;;
8708;SDS011;4391;48.678;9.280;2023-08-06T12:37:02;0.70;;;0.40;;
8708;SDS011;4391;48.678;9.280;2023-08-06T12:39:30;1.13;;;0.30;;
8708;SDS011;4391;48.678;9.280;2023-08-06T12:41:57;1.95;;;0.40;;
8708;SDS011;4391;48.678;9.280;2023-08-06T12:44:25;1.35;;;0.40;;
8708;SDS011;4391;48.678;9.280;2023-08-06T12:46:52;1.05;;;0.40;;
8708;SDS011;4391;48.678;9.280;2023-08-06T12:49:18;2.60;;;0.50;;
8708;SDS011;4391;48.678;9.280;2023-08-06T12:51:47;1.42;;;0.50;;
8708;SDS011;4391;48.678;9.280;2023-08-06T12:54:14;1.30;;;0.40;;
8708;SDS011;4391;48.678;9.280;2023-08-06T12:56:43;1.40;;;0.40;;
8708;SDS011;4391;48.678;9.280;2023-08-06T12:59:10;1.20;;;0.40;;
8708;SDS011;4391;48.678;9.280;2023-08-06T13:01:37;1.90;;;0.57;;
8708;SDS011;4391;48.678;9.280;2023-08-06T13:04:04;2.00;;;0.73;;
8708;SDS011;4391;48.678;9.280;2023-08-06T13:06:31;1.40;;;0.40;;
8708;SDS011;4391;48.678;9.280;2023-08-06T13:09:01;1.42;;;0.60;;
8708;SDS011;4391;48.678;9.280;2023-08-06T13:11:28;1.85;;;0.70;;
8708;SDS011;4391;48.678;9.280;2023-08-06T13:13:58;1.93;;;0.70;;
8708;SDS011;4391;48.678;9.280;2023-08-06T13:16:29;2.60;;;0.70;;
8708;SDS011;4391;48.678;9.280;2023-08-06T13:18:56;1.30;;;0.52;;
8708;SDS011;4391;48.678;9.280;2023-08-06T13:21:23;2.92;;;0.60;;
8708;SDS011;4391;48.678;9.280;2023-08-06T13:23:50;1.90;;;0.50;;
8708;SDS011;4391;48.678;9.280;2023-08-06T13:26:17;1.70;;;0.60;;
8708;SDS011;4391;48.678;9.280;2023-08-06T13:28:43;1.67;;;0.60;;
8708;SDS011;4391;48.678;9.280;2023-08-06T13:31:12;1.50;;;0.60;;
8708;SDS011;4391;48.678;9.280;2023-08-06T13:33:38;1.42;;;0.60;;
8708;SDS011;4391;48.678;9.280;2023-08-06T13:36:05;1.52;;;0.60;;
8708;SDS011;4391;48.678;9.280;2023-08-06T13:38:32;3.47;;;0.50;;
8708;SDS011;4391;48.678;9.280;2023-08-06T13:40:59;1.58;;;0.60;;
8708;SDS011;4391;48.678;9.280;2023-08-06T13:43:25;2.80;;;0.70;;
8708;SDS011;4391;48.678;9.280;2023-08-06T13:45:53;2.38;;;0.77;;
8708;SDS011;4391;48.678;9.280;2023-08-06T13:48:21;1.30;;;0.60;;
8708;SDS011;4391;48.678;9.280;2023-08-06T13:50:48;2.57;;;0.60;;
8708;SDS011;4391;48.678;9.280;2023-08-06T13:53:15;1.30;;;0.47;;
8708;SDS011;4391;48.678;9.280;2023-08-06T13:55:41;1.38;;;0.50;;
8708;SDS011;4391;48.678;9.280;2023-08-06T13:58:08;2.33;;;0.63;;
8708;SDS011;4391;48.678;9.280;2023-08-06T14:00:35;1.17;;;0.40;;
8708;SDS011;4391;48.678;9.280;2023-08-06T14:03:02;2.40;;;0.60;;
8708;SDS011;4391;48.678;9.280;2023-08-06T14:05:30;1.08;;;0.50;;
8708;SDS011;4391;48.678;9.280;2023-08-06T14:07:58;1.90;;;0.55;;
8708;SDS011;4391;48.678;9.280;2023-08-06T14:10:25;1.38;;;0.52;;
8708;SDS011;4391;48.678;9.280;2023-08-06T14:12:52;0.98;;;0.40;;
8708;SDS011;4391;48.678;9.280;2023-08-06T14:15:19;1.80;;;0.50;;
8708;SDS011;4391;48.678;9.280;2023-08-06T14:17:45;1.10;;;0.50;;
8708;SDS011;4391;48.678;9.280;2023-08-06T14:20:12;1.25;;;0.50;;
8708;SDS011;4391;48.678;9.280;2023-08-06T14:22:40;6.22;;;0.70;;
8708;SDS011;4391;48.678;9.280;2023-08-06T14:25:07;2.95;;;0.60;;
8708;SDS011;4391;48.678;9.280;2023-08-06T14:27:34;2.33;;;1.00;;
8708;SDS011;4391;48.678;9.280;2023-08-06T14:30:02;1.10;;;0.50;;
8708;SDS011;4391;48.678;9.280;2023-08-06T14:32:29;1.60;;;0.50;;
8708;SDS011;4391;48.678;9.280;2023-08-06T14:34:56;1.98;;;0.80;;
8708;SDS011;4391;48.678;9.280;2023-08-06T14:37:24;1.33;;;0.68;;
8708;SDS011;4391;48.678;9.280;2023-08-06T14:39:52;1.73;;;0.50;;
8708;SDS011;4391;48.678;9.280;2023-08-06T14:42:19;1.30;;;0.43;;
8708;SDS011;4391;48.678;9.280;2023-08-06T14:44:46;2.17;;;0.50;;
8708;SDS011;4391;48.678;9.280;2023-08-06T14:47:13;2.20;;;0.60;;
8708;SDS011;4391;48.678;9.280;2023-08-06T14:49:39;0.80;;;0.40;;
8708;SDS011;4391;48.678;9.280;2023-08-06T14:52:06;2.43;;;0.70;;
8708;SDS011;4391;48.678;9.280;2023-08-06T14:54:33;1.92;;;0.70;;
8708;SDS011;4391;48.678;9.280;2023-08-06T14:57:01;1.77;;;0.55;;
8708;SDS011;4391;48.678;9.280;2023-08-06T14:59:28;1.38;;;0.60;;
8708;SDS011;4391;48.678;9.280;2023-08-06T15:01:55;1.40;;;0.60;;
8708;SDS011;4391;48.678;9.280;2023-08-06T15:04:22;1.17;;;0.50;;
8708;SDS011;4391;48.678;9.280;2023-08-06T15:06:49;1.40;;;0.60;;
8708;SDS011;4391;48.678;9.280;2023-08-06T15:09:16;3.08;;;0.52;;
8708;SDS011;4391;48.678;9.280;2023-08-06T15:11:43;2.65;;;0.60;;
8708;SDS011;4391;48.678;9.280;2023-08-06T15:14:11;1.65;;;0.55;;
8708;SDS011;4391;48.678;9.280;2023-08-06T15:16:39;1.10;;;0.60;;
8708;SDS011;4391;48.678;9.280;2023-08-06T15:19:09;3.28;;;0.65;;
8708;SDS011;4391;48.678;9.280;2023-08-06T15:21:36;1.15;;;0.47;;
8708;SDS011;4391;48.678;9.280;2023-08-06T15:24:03;1.55;;;0.50;;